Romain Hue

Romain Hue

Statistiques 2021

  • Courses courues : 31
  • Nb de victoires : 7
  • Nb de places : 14
  • Écart gagnant : -
  • Réussite à la gagne : 23%
  • Réussite à la place : 45%
Musique : 1a 8a 2a 2a Da Da 6a 2a 5a 1a 8a 4a 5a 5a 1a 1a Da Da
DateRangCatégorieAlloc.Dist.HippodromeChevalRed. KmSpé.
29/07/21 1 Trot 12 000€ 2 700m Graignes Herbiere 1'16"1 Attelé
27/07/21 8 Trot 22 000€ 2 725m Cabourg Iseria Griff 1'16"5 Attelé
25/07/21 2 Trot 12 000€ 2 400m Domfront Fatal Haufor Attelé
24/07/21 2 Trot 11 000€ 2 700m Segre Ines d'Atout Attelé
21/07/21 D Trot 33 000€ 2 875m Enghien Soisy Izira Josselyn Attelé
11/07/21 D Trot 11 000€ 2 475m Francheville Igea Josselyn Attelé
10/07/21 6 Trot 14 000€ 2 900m Clairefontaine Fonce Vicomte Attelé
04/07/21 2 Trot 11 000€ 2 525m Chinon Herduno Attelé
02/07/21 5 Trot 13 000€ 2 800m Villedieu Les Poeles Good Night Medy Attelé
26/06/21 1 Trot 18 000€ 2 700m La Capelle Izira Josselyn 1'16"3 Attelé
24/06/21 8 Trot 16 000€ 2 850m Mauquenchy Gucci de Barb 1'18"8 Attelé
12/06/21 4 Trot 23 000€ 2 725m Lisieux Iseria Griff 1'17"3 Attelé
05/06/21 5 Trot 22 000€ 2 825m Pontchateau Gondole de Blary 1'14"6 Attelé lire

Après avoir attendu en queue de peloton, a bien conclu tout en perdant la quatrième place près du but.

03/06/21 5 Trot 21 000€ 2 825m Le Croise Laroche Elegant Castelets 1'15"6 Attelé
31/05/21 1 Trot 16 000€ 2 925m Amiens Falcon d'Espace 1'16"2 Attelé
30/05/21 1 Trot 13 000€ 2 825m Vire Fonce Vicomte 1'16"1 Attelé
16/05/21 D Trot 14 000€ 3 250m Vitre Gourgandine Attelé
13/05/21 D Trot 13 000€ 3 225m Fougeres Gabello Jephi Attelé
12/05/21 3 Trot 15 000€ 2 825m Chartres Falcon d'Espace 1'14"1 Attelé
11/05/21 2 Trot 18 000€ 2 100m Vincennes Danse Cadence 1'12"8 Attelé
09/05/21 D Trot 17 000€ 2 900m Arras El Tresor Attelé
09/05/21 D Trot 12 000€ 2 900m Arras Hash Boum Bang Attelé
08/05/21 D Trot 13 000€ 2 450m Castillonnes Imurtioli Attelé
27/04/21 4 Trot 34 000€ 2 700m Vincennes Gloria d'Obret 1'15"1 Attelé lire

Après avoir attendu, a rejoint les animatrices dans la montée, puis a coincé pour finir.

26/04/21 5 Trot 18 000€ 2 550m Reims Gabello Jephi 1'14"8 Attelé
25/04/21 1 Trot 17 000€ 2 650m Cordemais Ipona Gwen 1'15"3 Attelé
20/04/21 2 Trot 18 000€ 2 100m Vincennes Danse Cadence 1'12"7 Attelé
11/03/21 1 Trot 18 000€ 2 200m Caen Gina Bourbon 1'16"8 Attelé
21/02/21 1 Trot 11 000€ 2 675m Le Mont Saint Michel Iseria Griff 1'18"2 Attelé
24/01/21 D Trot 11 000€ 2 875m Argentan Iseria Griff Attelé
23/12/20 1 Trot 16 000€ 2 800m Pontchateau Ephaistos 1'17"3 Attelé
13/12/20 D Trot 29 000€ 2 850m Vincennes Histoire Pierji Attelé
29/11/20 2 Trot 13 000€ 2 625m Cherbourg Fame d'Obret 1'14"9 Attelé
24/11/20 7 Trot 29 000€ 2 100m Vincennes Falcon d'Espace 1'14"6 Attelé lire

Rapidement en queue de peloton, a terminé honorablement.

17/11/20 6 Trot 26 000€ 2 100m Vincennes Eldorado de Ver 1'14"1 Attelé lire

Après avoir figuré au sein du peloton, a conclu de bonne manière sans avoir toutes ses aises.

15/11/20 2 Trot 15 000€ 3 000m Nantes El Tresor 1'16"2 Attelé
06/11/20 5 Trot 29 000€ 2 850m Vincennes Histoire Pierji 1'15"7 Attelé
22/10/20 0 Trot 18 000€ 2 050m Cabourg Eldorado de Ver Attelé
18/10/20 7 Trot 12 000€ 2 700m Graignes Gama Bourbon 1'16"7 Attelé
16/10/20 1 Trot 15 000€ 2 800m Chartres First de Sassy 1'16"3 Attelé
04/10/20 D Trot 12 000€ 2 850m Mauquenchy Gama Bourbon Attelé
03/10/20 3 Trot 21 000€ 2 450m Caen Histoire Pierji 1'15"7 Attelé
25/09/20 9 Trot 16 000€ 2 850m Laval Gama Bourbon 1'17"0 Attelé
21/09/20 4 Trot 17 000€ 2 700m Le Croise Laroche Elegant Castelets 1'14"9 Attelé
20/09/20 3 Trot 14 000€ 2 525m Les Andelys Haribo du Carnois Attelé
19/09/20 0 Trot 12 000€ 2 400m Amiens Feu des Pres Attelé
17/09/20 1 Trot 14 000€ 2 725m Pornichet La Baule Ephaistos 1'15"6 Attelé
14/09/20 5 Trot 16 000€ 2 850m Laval Falcon d'Espace 1'14"7 Attelé
13/09/20 D Trot 12 000€ 2 825m Moulins La Marche Fabuleuse Dika Attelé
06/09/20 6 Trot 9 000€ 2 625m Cherbourg Flavio 1'18"4 Attelé